sensor_id;sensor_type;location;lat;lon;timestamp;pressure;altitude;pressure_sealevel;temperature;humidity
74327;BME280;62745;51.060;13.786;2022-10-16T00:01:30;100071.56;;;14.88;89.86
74327;BME280;62745;51.060;13.786;2022-10-16T00:03:57;100061.19;;;14.91;89.12
74327;BME280;62745;51.060;13.786;2022-10-16T00:06:23;100068.88;;;14.88;89.81
74327;BME280;62745;51.060;13.786;2022-10-16T00:08:49;100064.53;;;14.87;89.87
74327;BME280;62745;51.060;13.786;2022-10-16T00:11:18;100069.56;;;14.83;90.18
74327;BME280;62745;51.060;13.786;2022-10-16T00:13:45;100071.19;;;14.84;90.10
74327;BME280;62745;51.060;13.786;2022-10-16T00:16:12;100074.13;;;14.83;89.85
74327;BME280;62745;51.060;13.786;2022-10-16T00:18:37;100084.19;;;14.87;89.78
74327;BME280;62745;51.060;13.786;2022-10-16T00:21:09;100085.09;;;14.81;90.07
74327;BME280;62745;51.060;13.786;2022-10-16T00:23:36;100091.53;;;14.80;90.24
74327;BME280;62745;51.060;13.786;2022-10-16T00:26:04;100091.13;;;14.77;90.24
74327;BME280;62745;51.060;13.786;2022-10-16T00:28:30;100087.84;;;14.74;90.79
74327;BME280;62745;51.060;13.786;2022-10-16T00:30:56;100095.75;;;14.69;90.18
74327;BME280;62745;51.060;13.786;2022-10-16T00:33:22;100092.69;;;14.66;91.17
74327;BME280;62745;51.060;13.786;2022-10-16T00:35:47;100094.03;;;14.75;90.63
74327;BME280;62745;51.060;13.786;2022-10-16T00:38:13;100088.66;;;14.75;90.31
74327;BME280;62745;51.060;13.786;2022-10-16T00:40:39;100077.31;;;14.73;90.48
74327;BME280;62745;51.060;13.786;2022-10-16T00:46:15;100093.75;;;14.65;90.65
74327;BME280;62745;51.060;13.786;2022-10-16T00:48:42;100099.13;;;14.65;90.94
74327;BME280;62745;51.060;13.786;2022-10-16T00:51:10;100106.59;;;14.63;90.76
74327;BME280;62745;51.060;13.786;2022-10-16T00:53:36;100106.19;;;14.59;91.16
74327;BME280;62745;51.060;13.786;2022-10-16T00:56:02;100111.78;;;14.58;91.11
74327;BME280;62745;51.060;13.786;2022-10-16T00:58:27;100119.63;;;14.59;91.18
74327;BME280;62745;51.060;13.786;2022-10-16T01:00:52;100110.09;;;14.63;91.06
74327;BME280;62745;51.060;13.786;2022-10-16T01:03:27;100108.00;;;14.65;90.88
74327;BME280;62745;51.060;13.786;2022-10-16T01:09:07;100111.44;;;14.72;90.68
74327;BME280;62745;51.060;13.786;2022-10-16T01:14:32;100116.69;;;14.86;90.22
74327;BME280;62745;51.060;13.786;2022-10-16T01:17:27;100101.16;;;14.88;90.05
74327;BME280;62745;51.060;13.786;2022-10-16T01:28:08;100105.47;;;15.07;89.18
74327;BME280;62745;51.060;13.786;2022-10-16T01:30:36;100109.22;;;15.06;89.02
74327;BME280;62745;51.060;13.786;2022-10-16T01:33:10;100113.09;;;15.10;89.10
74327;BME280;62745;51.060;13.786;2022-10-16T01:35:43;100107.66;;;15.17;88.81
74327;BME280;62745;51.060;13.786;2022-10-16T01:38:31;100123.22;;;15.15;89.03
74327;BME280;62745;51.060;13.786;2022-10-16T01:41:01;100125.91;;;15.15;89.24
74327;BME280;62745;51.060;13.786;2022-10-16T01:43:31;100123.72;;;15.23;88.82
74327;BME280;62745;51.060;13.786;2022-10-16T01:46:00;100124.53;;;15.24;88.70
74327;BME280;62745;51.060;13.786;2022-10-16T01:48:26;100128.63;;;15.26;88.69
74327;BME280;62745;51.060;13.786;2022-10-16T01:51:04;100130.50;;;15.26;88.81
74327;BME280;62745;51.060;13.786;2022-10-16T01:53:31;100118.50;;;15.28;88.50
74327;BME280;62745;51.060;13.786;2022-10-16T01:55:58;100116.16;;;15.32;88.50
74327;BME280;62745;51.060;13.786;2022-10-16T01:58:26;100110.69;;;15.39;88.12
74327;BME280;62745;51.060;13.786;2022-10-16T02:00:54;100110.91;;;15.37;88.37
74327;BME280;62745;51.060;13.786;2022-10-16T02:03:20;100125.41;;;15.36;88.30
74327;BME280;62745;51.060;13.786;2022-10-16T02:05:51;100125.19;;;15.38;88.26
74327;BME280;62745;51.060;13.786;2022-10-16T02:08:19;100126.00;;;15.38;88.46
74327;BME280;62745;51.060;13.786;2022-10-16T02:10:44;100120.84;;;15.37;88.22
74327;BME280;62745;51.060;13.786;2022-10-16T02:13:14;100117.56;;;15.34;88.53
74327;BME280;62745;51.060;13.786;2022-10-16T02:15:41;100127.28;;;15.35;88.29
74327;BME280;62745;51.060;13.786;2022-10-16T02:18:08;100128.56;;;15.33;88.29
74327;BME280;62745;51.060;13.786;2022-10-16T02:20:59;100127.16;;;15.30;88.46
74327;BME280;62745;51.060;13.786;2022-10-16T02:23:30;100133.50;;;15.36;88.21
74327;BME280;62745;51.060;13.786;2022-10-16T02:25:59;100130.56;;;15.38;88.31
74327;BME280;62745;51.060;13.786;2022-10-16T02:28:35;100134.22;;;15.43;87.84
74327;BME280;62745;51.060;13.786;2022-10-16T02:31:04;100131.75;;;15.42;87.76
74327;BME280;62745;51.060;13.786;2022-10-16T02:33:32;100131.53;;;15.43;87.75
74327;BME280;62745;51.060;13.786;2022-10-16T02:35:59;100132.88;;;15.52;87.32
74327;BME280;62745;51.060;13.786;2022-10-16T02:38:25;100122.69;;;15.54;86.67
74327;BME280;62745;51.060;13.786;2022-10-16T02:40:51;100123.75;;;15.53;87.01
74327;BME280;62745;51.060;13.786;2022-10-16T02:43:16;100130.94;;;15.59;86.75
74327;BME280;62745;51.060;13.786;2022-10-16T02:45:42;100140.66;;;15.60;86.67
74327;BME280;62745;51.060;13.786;2022-10-16T02:48:07;100143.75;;;15.64;86.36
74327;BME280;62745;51.060;13.786;2022-10-16T02:50:33;100140.13;;;15.70;86.28
74327;BME280;62745;51.060;13.786;2022-10-16T02:52:58;100124.56;;;15.72;85.80
74327;BME280;62745;51.060;13.786;2022-10-16T02:55:24;100120.22;;;15.71;85.74
74327;BME280;62745;51.060;13.786;2022-10-16T02:57:49;100107.22;;;15.68;85.72
74327;BME280;62745;51.060;13.786;2022-10-16T03:00:16;100120.22;;;15.71;85.91
74327;BME280;62745;51.060;13.786;2022-10-16T03:02:42;100123.72;;;15.72;86.00
74327;BME280;62745;51.060;13.786;2022-10-16T03:05:08;100116.34;;;15.67;85.87
74327;BME280;62745;51.060;13.786;2022-10-16T03:07:34;100106.03;;;15.64;85.66
74327;BME280;62745;51.060;13.786;2022-10-16T03:09:59;100110.59;;;15.63;85.84
74327;BME280;62745;51.060;13.786;2022-10-16T03:12:28;100110.50;;;15.70;85.59
74327;BME280;62745;51.060;13.786;2022-10-16T03:14:55;100122.78;;;15.66;86.07
74327;BME280;62745;51.060;13.786;2022-10-16T03:17:21;100134.50;;;15.72;85.45
74327;BME280;62745;51.060;13.786;2022-10-16T03:19:46;100129.00;;;15.67;85.76
74327;BME280;62745;51.060;13.786;2022-10-16T03:22:12;100131.31;;;15.63;85.93
74327;BME280;62745;51.060;13.786;2022-10-16T03:24:37;100142.09;;;15.63;85.79
74327;BME280;62745;51.060;13.786;2022-10-16T03:27:02;100133.63;;;15.59;85.51
74327;BME280;62745;51.060;13.786;2022-10-16T03:29:27;100144.47;;;15.53;86.47
74327;BME280;62745;51.060;13.786;2022-10-16T03:31:55;100143.41;;;15.54;86.07
74327;BME280;62745;51.060;13.786;2022-10-16T03:34:21;100141.41;;;15.49;86.47
74327;BME280;62745;51.060;13.786;2022-10-16T03:36:46;100142.91;;;15.45;86.63
74327;BME280;62745;51.060;13.786;2022-10-16T03:39:11;100151.81;;;15.46;87.15
74327;BME280;62745;51.060;13.786;2022-10-16T03:41:37;100145.81;;;15.44;86.76
74327;BME280;62745;51.060;13.786;2022-10-16T03:44:02;100145.81;;;15.44;87.06
74327;BME280;62745;51.060;13.786;2022-10-16T03:46:27;100141.94;;;15.40;87.44
74327;BME280;62745;51.060;13.786;2022-10-16T03:48:53;100148.31;;;15.45;87.11
74327;BME280;62745;51.060;13.786;2022-10-16T03:51:18;100151.06;;;15.39;87.31
74327;BME280;62745;51.060;13.786;2022-10-16T03:53:43;100154.22;;;15.35;87.45
74327;BME280;62745;51.060;13.786;2022-10-16T03:56:08;100155.41;;;15.40;87.53
74327;BME280;62745;51.060;13.786;2022-10-16T03:58:34;100166.38;;;15.38;87.17
74327;BME280;62745;51.060;13.786;2022-10-16T04:00:59;100160.03;;;15.32;87.57
74327;BME280;62745;51.060;13.786;2022-10-16T04:03:24;100164.16;;;15.35;87.58
74327;BME280;62745;51.060;13.786;2022-10-16T04:05:50;100161.47;;;15.35;87.89
74327;BME280;62745;51.060;13.786;2022-10-16T04:08:15;100159.59;;;15.35;87.65
74327;BME280;62745;51.060;13.786;2022-10-16T04:10:42;100161.31;;;15.30;87.91
74327;BME280;62745;51.060;13.786;2022-10-16T04:13:08;100173.50;;;15.32;87.96
74327;BME280;62745;51.060;13.786;2022-10-16T04:15:33;100163.94;;;15.37;87.85
74327;BME280;62745;51.060;13.786;2022-10-16T04:17:58;100173.88;;;15.36;87.67
74327;BME280;62745;51.060;13.786;2022-10-16T04:20:24;100175.38;;;15.32;87.88
74327;BME280;62745;51.060;13.786;2022-10-16T04:22:49;100186.50;;;15.35;87.79
74327;BME280;62745;51.060;13.786;2022-10-16T04:25:14;100185.75;;;15.47;87.56
74327;BME280;62745;51.060;13.786;2022-10-16T04:27:40;100181.50;;;15.39;87.70
74327;BME280;62745;51.060;13.786;2022-10-16T04:30:06;100186.88;;;15.39;87.79
74327;BME280;62745;51.060;13.786;2022-10-16T04:32:31;100182.31;;;15.40;87.73
74327;BME280;62745;51.060;13.786;2022-10-16T04:34:56;100172.38;;;15.40;87.87
74327;BME280;62745;51.060;13.786;2022-10-16T04:37:26;100176.19;;;15.32;88.08
74327;BME280;62745;51.060;13.786;2022-10-16T04:39:52;100184.50;;;15.31;88.58
74327;BME280;62745;51.060;13.786;2022-10-16T04:42:17;100199.44;;;15.27;88.52
74327;BME280;62745;51.060;13.786;2022-10-16T04:44:42;100199.22;;;15.28;88.37
74327;BME280;62745;51.060;13.786;2022-10-16T04:47:08;100201.06;;;15.28;88.62
74327;BME280;62745;51.060;13.786;2022-10-16T04:49:33;100207.34;;;15.22;89.06
74327;BME280;62745;51.060;13.786;2022-10-16T04:51:58;100198.00;;;15.24;88.59
74327;BME280;62745;51.060;13.786;2022-10-16T04:54:24;100203.41;;;15.24;88.49
74327;BME280;62745;51.060;13.786;2022-10-16T04:56:49;100207.34;;;15.22;88.77
74327;BME280;62745;51.060;13.786;2022-10-16T04:59:17;100197.06;;;15.19;88.67
74327;BME280;62745;51.060;13.786;2022-10-16T05:01:43;100189.94;;;15.24;88.42
74327;BME280;62745;51.060;13.786;2022-10-16T05:04:09;100194.50;;;15.24;88.55
74327;BME280;62745;51.060;13.786;2022-10-16T05:06:34;100197.88;;;15.19;88.78
74327;BME280;62745;51.060;13.786;2022-10-16T05:09:00;100199.06;;;15.23;88.47
74327;BME280;62745;51.060;13.786;2022-10-16T05:11:25;100191.22;;;15.22;88.37
74327;BME280;62745;51.060;13.786;2022-10-16T05:13:50;100205.50;;;15.22;88.62
74327;BME280;62745;51.060;13.786;2022-10-16T05:16:16;100203.25;;;15.19;88.75
74327;BME280;62745;51.060;13.786;2022-10-16T05:18:41;100201.53;;;15.25;88.39
74327;BME280;62745;51.060;13.786;2022-10-16T05:21:06;100201.75;;;15.23;88.33
74327;BME280;62745;51.060;13.786;2022-10-16T05:23:32;100204.91;;;15.20;88.70
74327;BME280;62745;51.060;13.786;2022-10-16T05:25:58;100199.50;;;15.20;88.58
74327;BME280;62745;51.060;13.786;2022-10-16T05:28:29;100209.22;;;15.21;88.70
74327;BME280;62745;51.060;13.786;2022-10-16T05:30:56;100214.00;;;15.19;88.74
74327;BME280;62745;51.060;13.786;2022-10-16T05:33:24;100222.81;;;15.26;88.39
74327;BME280;62745;51.060;13.786;2022-10-16T05:35:51;100220.38;;;15.25;88.56
74327;BME280;62745;51.060;13.786;2022-10-16T05:38:17;100220.13;;;15.26;88.25
74327;BME280;62745;51.060;13.786;2022-10-16T05:40:42;100215.22;;;15.23;88.64
74327;BME280;62745;51.060;13.786;2022-10-16T05:43:08;100212.97;;;15.20;88.83
74327;BME280;62745;51.060;13.786;2022-10-16T05:45:33;100213.09;;;15.25;88.56
74327;BME280;62745;51.060;13.786;2022-10-16T05:47:59;100225.53;;;15.26;88.52
74327;BME280;62745;51.060;13.786;2022-10-16T05:50:25;100224.28;;;15.29;88.50
74327;BME280;62745;51.060;13.786;2022-10-16T05:52:50;100232.78;;;15.26;88.49
74327;BME280;62745;51.060;13.786;2022-10-16T05:55:16;100237.28;;;15.32;88.53
74327;BME280;62745;51.060;13.786;2022-10-16T05:57:41;100245.59;;;15.30;88.50
74327;BME280;62745;51.060;13.786;2022-10-16T06:00:07;100256.56;;;15.29;88.69
74327;BME280;62745;51.060;13.786;2022-10-16T06:02:32;100260.91;;;15.30;88.61
74327;BME280;62745;51.060;13.786;2022-10-16T06:04:58;100254.47;;;15.31;88.65
74327;BME280;62745;51.060;13.786;2022-10-16T06:07:23;100258.00;;;15.31;88.96
74327;BME280;62745;51.060;13.786;2022-10-16T06:09:49;100250.97;;;15.30;88.58
74327;BME280;62745;51.060;13.786;2022-10-16T06:12:15;100255.91;;;15.33;88.73
74327;BME280;62745;51.060;13.786;2022-10-16T06:14:41;100259.41;;;15.34;88.97
74327;BME280;62745;51.060;13.786;2022-10-16T06:17:06;100263.75;;;15.35;88.63
74327;BME280;62745;51.060;13.786;2022-10-16T06:19:32;100264.19;;;15.32;89.00
74327;BME280;62745;51.060;13.786;2022-10-16T06:21:57;100278.03;;;15.35;88.84
74327;BME280;62745;51.060;13.786;2022-10-16T06:24:23;100274.75;;;15.33;88.81
74327;BME280;62745;51.060;13.786;2022-10-16T06:26:49;100280.28;;;15.39;88.63
74327;BME280;62745;51.060;13.786;2022-10-16T06:29:14;100286.25;;;15.41;88.57
74327;BME280;62745;51.060;13.786;2022-10-16T06:31:39;100283.34;;;15.42;88.50
74327;BME280;62745;51.060;13.786;2022-10-16T06:34:05;100287.25;;;15.46;88.60
74327;BME280;62745;51.060;13.786;2022-10-16T06:36:34;100283.28;;;15.49;88.54
74327;BME280;62745;51.060;13.786;2022-10-16T06:39:00;100282.38;;;15.55;88.27
74327;BME280;62745;51.060;13.786;2022-10-16T06:41:25;100291.88;;;15.57;88.51
74327;BME280;62745;51.060;13.786;2022-10-16T06:43:50;100292.50;;;15.59;88.28
74327;BME280;62745;51.060;13.786;2022-10-16T06:46:20;100299.25;;;15.69;87.74
74327;BME280;62745;51.060;13.786;2022-10-16T06:48:46;100292.94;;;15.75;87.55
74327;BME280;62745;51.060;13.786;2022-10-16T06:51:14;100318.09;;;15.87;87.40
74327;BME280;62745;51.060;13.786;2022-10-16T06:53:42;100309.94;;;15.93;86.85
74327;BME280;62745;51.060;13.786;2022-10-16T06:58:33;100311.19;;;16.09;86.38
74327;BME280;62745;51.060;13.786;2022-10-16T07:00:58;100314.63;;;16.16;86.32
74327;BME280;62745;51.060;13.786;2022-10-16T07:03:24;100317.09;;;16.18;85.65
74327;BME280;62745;51.060;13.786;2022-10-16T07:05:49;100324.88;;;16.26;85.98
74327;BME280;62745;51.060;13.786;2022-10-16T07:08:14;100328.84;;;16.23;85.86
74327;BME280;62745;51.060;13.786;2022-10-16T07:10:40;100333.19;;;16.24;85.42
74327;BME280;62745;51.060;13.786;2022-10-16T07:13:05;100332.22;;;16.19;86.00
74327;BME280;62745;51.060;13.786;2022-10-16T07:15:32;100321.94;;;16.28;85.96
74327;BME280;62745;51.060;13.786;2022-10-16T07:17:58;100329.03;;;16.40;85.54
74327;BME280;62745;51.060;13.786;2022-10-16T07:20:23;100321.69;;;16.47;85.43
74327;BME280;62745;51.060;13.786;2022-10-16T07:22:48;100336.34;;;16.51;85.28
74327;BME280;62745;51.060;13.786;2022-10-16T07:25:14;100337.31;;;16.57;85.02
74327;BME280;62745;51.060;13.786;2022-10-16T07:27:39;100345.91;;;16.66;84.49
74327;BME280;62745;51.060;13.786;2022-10-16T07:30:05;100349.59;;;16.71;84.42
74327;BME280;62745;51.060;13.786;2022-10-16T07:32:31;100363.88;;;16.72;84.61
74327;BME280;62745;51.060;13.786;2022-10-16T07:34:56;100367.06;;;16.69;84.25
74327;BME280;62745;51.060;13.786;2022-10-16T07:37:21;100374.31;;;16.68;84.30
74327;BME280;62745;51.060;13.786;2022-10-16T07:39:47;100375.97;;;16.69;84.38
74327;BME280;62745;51.060;13.786;2022-10-16T07:42:12;100383.13;;;16.75;84.24
74327;BME280;62745;51.060;13.786;2022-10-16T07:44:38;100390.03;;;16.71;84.23
74327;BME280;62745;51.060;13.786;2022-10-16T07:47:03;100389.34;;;16.76;83.95
74327;BME280;62745;51.060;13.786;2022-10-16T07:49:28;100389.03;;;16.84;83.83
74327;BME280;62745;51.060;13.786;2022-10-16T07:51:53;100392.34;;;16.86;83.79
74327;BME280;62745;51.060;13.786;2022-10-16T07:54:19;100401.38;;;16.92;83.58
74327;BME280;62745;51.060;13.786;2022-10-16T07:56:44;100398.81;;;16.97;83.36
74327;BME280;62745;51.060;13.786;2022-10-16T07:59:10;100396.03;;;17.03;82.86
74327;BME280;62745;51.060;13.786;2022-10-16T08:01:35;100394.63;;;17.12;82.75
74327;BME280;62745;51.060;13.786;2022-10-16T08:04:00;100395.13;;;17.21;82.50
74327;BME280;62745;51.060;13.786;2022-10-16T08:06:25;100398.75;;;17.27;82.57
74327;BME280;62745;51.060;13.786;2022-10-16T08:08:51;100392.44;;;17.33;82.01
74327;BME280;62745;51.060;13.786;2022-10-16T08:11:16;100381.06;;;17.42;81.68
74327;BME280;62745;51.060;13.786;2022-10-16T08:13:42;100367.91;;;17.58;81.50
74327;BME280;62745;51.060;13.786;2022-10-16T08:16:07;100367.56;;;17.66;80.78
74327;BME280;62745;51.060;13.786;2022-10-16T08:18:38;100375.09;;;17.64;80.40
74327;BME280;62745;51.060;13.786;2022-10-16T08:21:05;100385.22;;;17.68;80.69
74327;BME280;62745;51.060;13.786;2022-10-16T08:23:31;100389.06;;;17.72;79.72
74327;BME280;62745;51.060;13.786;2022-10-16T08:26:04;100385.31;;;17.73;79.53
74327;BME280;62745;51.060;13.786;2022-10-16T08:28:30;100385.78;;;17.82;79.17
74327;BME280;62745;51.060;13.786;2022-10-16T08:30:55;100381.66;;;17.91;79.10
74327;BME280;62745;51.060;13.786;2022-10-16T08:33:22;100383.28;;;18.04;78.71
74327;BME280;62745;51.060;13.786;2022-10-16T08:35:53;100387.63;;;18.17;77.95
74327;BME280;62745;51.060;13.786;2022-10-16T08:38:19;100382.41;;;18.27;76.98
74327;BME280;62745;51.060;13.786;2022-10-16T08:40:44;100394.34;;;18.43;76.50
74327;BME280;62745;51.060;13.786;2022-10-16T08:51:03;100390.72;;;18.77;75.42
74327;BME280;62745;51.060;13.786;2022-10-16T08:53:59;100393.38;;;18.89;74.90
74327;BME280;62745;51.060;13.786;2022-10-16T08:56:27;100398.31;;;18.92;74.25
74327;BME280;62745;51.060;13.786;2022-10-16T08:58:53;100391.03;;;19.09;73.83
74327;BME280;62745;51.060;13.786;2022-10-16T09:01:21;100397.38;;;19.32;73.61
74327;BME280;62745;51.060;13.786;2022-10-16T09:11:53;100380.09;;;20.32;69.97
74327;BME280;62745;51.060;13.786;2022-10-16T09:17:03;100383.72;;;20.59;69.09
74327;BME280;62745;51.060;13.786;2022-10-16T09:19:37;100377.53;;;20.91;68.31
74327;BME280;62745;51.060;13.786;2022-10-16T09:22:13;100376.19;;;20.93;68.02
74327;BME280;62745;51.060;13.786;2022-10-16T09:24:39;100392.59;;;20.77;67.85
74327;BME280;62745;51.060;13.786;2022-10-16T09:27:09;100391.91;;;21.18;66.58
74327;BME280;62745;51.060;13.786;2022-10-16T09:29:35;100393.25;;;21.48;66.03
74327;BME280;62745;51.060;13.786;2022-10-16T09:32:18;100397.50;;;21.71;65.19
74327;BME280;62745;51.060;13.786;2022-10-16T09:34:50;100393.78;;;21.50;65.56
74327;BME280;62745;51.060;13.786;2022-10-16T09:37:19;100399.28;;;21.23;65.50
74327;BME280;62745;51.060;13.786;2022-10-16T09:39:52;100403.06;;;21.22;65.83
74327;BME280;62745;51.060;13.786;2022-10-16T09:42:21;100399.72;;;21.15;65.84
74327;BME280;62745;51.060;13.786;2022-10-16T09:44:50;100405.97;;;21.37;65.37
74327;BME280;62745;51.060;13.786;2022-10-16T09:47:21;100406.88;;;21.21;65.49
74327;BME280;62745;51.060;13.786;2022-10-16T09:50:01;100402.25;;;21.21;65.21
74327;BME280;62745;51.060;13.786;2022-10-16T09:52:30;100412.56;;;21.19;65.41
74327;BME280;62745;51.060;13.786;2022-10-16T09:57:23;100405.34;;;21.30;65.75
74327;BME280;62745;51.060;13.786;2022-10-16T09:59:56;100416.06;;;21.47;64.43
74327;BME280;62745;51.060;13.786;2022-10-16T10:02:42;100411.50;;;21.52;64.08
74327;BME280;62745;51.060;13.786;2022-10-16T10:05:18;100412.50;;;21.83;63.32
74327;BME280;62745;51.060;13.786;2022-10-16T10:07:46;100419.66;;;21.95;63.04
74327;BME280;62745;51.060;13.786;2022-10-16T10:10:22;100422.19;;;21.64;64.07
74327;BME280;62745;51.060;13.786;2022-10-16T10:12:48;100423.00;;;21.65;64.76
74327;BME280;62745;51.060;13.786;2022-10-16T10:15:15;100416.28;;;21.77;64.51
74327;BME280;62745;51.060;13.786;2022-10-16T10:17:49;100420.13;;;21.44;63.36
74327;BME280;62745;51.060;13.786;2022-10-16T10:20:22;100429.41;;;21.48;63.45
74327;BME280;62745;51.060;13.786;2022-10-16T10:22:48;100436.28;;;21.56;63.11
74327;BME280;62745;51.060;13.786;2022-10-16T10:30:37;100440.41;;;21.63;63.22
74327;BME280;62745;51.060;13.786;2022-10-16T10:38:42;100439.97;;;22.19;61.49
74327;BME280;62745;51.060;13.786;2022-10-16T10:41:21;100448.78;;;22.36;61.26
74327;BME280;62745;51.060;13.786;2022-10-16T10:49:51;100452.72;;;22.71;58.60
74327;BME280;62745;51.060;13.786;2022-10-16T10:52:49;100453.28;;;22.68;58.81
74327;BME280;62745;51.060;13.786;2022-10-16T10:58:24;100447.56;;;22.69;58.69
74327;BME280;62745;51.060;13.786;2022-10-16T11:01:04;100452.28;;;22.94;58.66
74327;BME280;62745;51.060;13.786;2022-10-16T11:06:26;100449.69;;;22.62;58.49
74327;BME280;62745;51.060;13.786;2022-10-16T11:09:07;100445.72;;;22.85;58.19
74327;BME280;62745;51.060;13.786;2022-10-16T11:11:38;100451.88;;;22.60;58.59
74327;BME280;62745;51.060;13.786;2022-10-16T11:14:18;100439.06;;;22.56;58.17
74327;BME280;62745;51.060;13.786;2022-10-16T11:16:52;100450.59;;;22.20;59.62
74327;BME280;62745;51.060;13.786;2022-10-16T11:19:31;100450.06;;;22.18;58.98
74327;BME280;62745;51.060;13.786;2022-10-16T11:22:04;100444.00;;;22.11;58.78
74327;BME280;62745;51.060;13.786;2022-10-16T11:27:48;100447.25;;;22.66;56.47
74327;BME280;62745;51.060;13.786;2022-10-16T11:30:20;100469.56;;;22.58;56.28
74327;BME280;62745;51.060;13.786;2022-10-16T11:35:25;100456.34;;;22.29;56.92
74327;BME280;62745;51.060;13.786;2022-10-16T11:37:56;100457.94;;;22.20;57.35
74327;BME280;62745;51.060;13.786;2022-10-16T11:40:28;100457.41;;;22.18;57.46
74327;BME280;62745;51.060;13.786;2022-10-16T11:42:58;100458.97;;;22.09;57.97
74327;BME280;62745;51.060;13.786;2022-10-16T11:45:34;100457.91;;;22.15;58.68
74327;BME280;62745;51.060;13.786;2022-10-16T11:51:14;100452.59;;;21.98;58.88
74327;BME280;62745;51.060;13.786;2022-10-16T11:56:20;100463.53;;;22.50;57.79
74327;BME280;62745;51.060;13.786;2022-10-16T11:59:06;100470.28;;;23.10;56.21
74327;BME280;62745;51.060;13.786;2022-10-16T12:01:43;100464.31;;;23.19;55.05
74327;BME280;62745;51.060;13.786;2022-10-16T12:04:34;100477.78;;;22.73;56.52
74327;BME280;62745;51.060;13.786;2022-10-16T12:07:10;100473.31;;;23.19;55.73
74327;BME280;62745;51.060;13.786;2022-10-16T12:09:39;100472.72;;;22.97;55.75
74327;BME280;62745;51.060;13.786;2022-10-16T12:12:24;100468.63;;;22.94;55.77
74327;BME280;62745;51.060;13.786;2022-10-16T12:15:15;100463.22;;;23.20;55.02
74327;BME280;62745;51.060;13.786;2022-10-16T12:17:42;100471.13;;;23.31;55.50
74327;BME280;62745;51.060;13.786;2022-10-16T12:22:54;100471.38;;;23.09;54.96
74327;BME280;62745;51.060;13.786;2022-10-16T12:25:26;100459.84;;;22.82;56.90
74327;BME280;62745;51.060;13.786;2022-10-16T12:27:58;100468.75;;;22.67;57.35
74327;BME280;62745;51.060;13.786;2022-10-16T12:30:26;100466.81;;;22.52;56.72
74327;BME280;62745;51.060;13.786;2022-10-16T12:33:00;100473.28;;;22.36;57.29
74327;BME280;62745;51.060;13.786;2022-10-16T12:35:30;100481.38;;;22.26;56.31
74327;BME280;62745;51.060;13.786;2022-10-16T12:38:15;100483.56;;;22.29;57.13
74327;BME280;62745;51.060;13.786;2022-10-16T12:40:43;100468.31;;;22.28;57.67
74327;BME280;62745;51.060;13.786;2022-10-16T12:43:58;100475.88;;;22.16;57.89
74327;BME280;62745;51.060;13.786;2022-10-16T12:46:04;100482.38;;;22.15;58.15
74327;BME280;62745;51.060;13.786;2022-10-16T12:48:30;100483.66;;;22.44;57.02
74327;BME280;62745;51.060;13.786;2022-10-16T12:50:56;100478.88;;;22.72;56.79
74327;BME280;62745;51.060;13.786;2022-10-16T12:53:24;100483.06;;;22.95;55.34
74327;BME280;62745;51.060;13.786;2022-10-16T12:56:04;100502.50;;;23.24;54.62
74327;BME280;62745;51.060;13.786;2022-10-16T13:01:47;100485.06;;;24.11;51.84
74327;BME280;62745;51.060;13.786;2022-10-16T13:10:15;100489.72;;;23.60;53.96
74327;BME280;62745;51.060;13.786;2022-10-16T13:16:18;100486.31;;;22.87;56.01
74327;BME280;62745;51.060;13.786;2022-10-16T13:19:10;100503.47;;;22.87;55.82
74327;BME280;62745;51.060;13.786;2022-10-16T13:21:56;100496.97;;;22.98;56.60
74327;BME280;62745;51.060;13.786;2022-10-16T13:24:52;100491.34;;;22.63;57.50
74327;BME280;62745;51.060;13.786;2022-10-16T13:27:39;100496.78;;;22.52;57.46
74327;BME280;62745;51.060;13.786;2022-10-16T13:30:16;100496.00;;;22.67;57.06
74327;BME280;62745;51.060;13.786;2022-10-16T13:32:48;100488.63;;;22.58;56.66
74327;BME280;62745;51.060;13.786;2022-10-16T13:35:25;100490.00;;;22.60;57.92
74327;BME280;62745;51.060;13.786;2022-10-16T13:38:02;100494.06;;;22.58;58.27
74327;BME280;62745;51.060;13.786;2022-10-16T13:40:27;100485.34;;;22.56;58.45
74327;BME280;62745;51.060;13.786;2022-10-16T13:42:53;100484.38;;;22.30;59.48
74327;BME280;62745;51.060;13.786;2022-10-16T13:45:24;100485.88;;;22.05;60.69
74327;BME280;62745;51.060;13.786;2022-10-16T13:48:06;100491.06;;;22.07;61.96
74327;BME280;62745;51.060;13.786;2022-10-16T13:50:31;100493.22;;;22.05;63.94
74327;BME280;62745;51.060;13.786;2022-10-16T13:53:07;100498.91;;;22.03;63.48
74327;BME280;62745;51.060;13.786;2022-10-16T13:55:37;100502.25;;;21.78;64.59
74327;BME280;62745;51.060;13.786;2022-10-16T13:58:13;100504.81;;;21.95;64.51
74327;BME280;62745;51.060;13.786;2022-10-16T14:00:39;100509.78;;;22.45;63.36
74327;BME280;62745;51.060;13.786;2022-10-16T14:03:11;100509.09;;;22.70;62.79
74327;BME280;62745;51.060;13.786;2022-10-16T14:05:49;100514.13;;;22.94;63.13
74327;BME280;62745;51.060;13.786;2022-10-16T14:08:15;100509.53;;;23.15;62.13
74327;BME280;62745;51.060;13.786;2022-10-16T14:10:40;100511.97;;;23.06;62.63
74327;BME280;62745;51.060;13.786;2022-10-16T14:13:07;100509.50;;;22.99;61.70
74327;BME280;62745;51.060;13.786;2022-10-16T14:15:35;100522.56;;;22.87;61.95
74327;BME280;62745;51.060;13.786;2022-10-16T14:18:02;100521.66;;;22.76;62.78
74327;BME280;62745;51.060;13.786;2022-10-16T14:20:30;100520.50;;;22.67;62.95